sensor_id;sensor_type;location;lat;lon;timestamp;P1;durP1;ratioP1;P2;durP2;ratioP2
77991;SDS011;67180;43.534;-5.652;2023-03-13T00:01:28;9.57;;;4.53;;
77991;SDS011;67180;43.534;-5.652;2023-03-13T00:03:54;8.20;;;4.32;;
77991;SDS011;67180;43.534;-5.652;2023-03-13T00:06:22;12.77;;;5.88;;
77991;SDS011;67180;43.534;-5.652;2023-03-13T00:08:48;7.70;;;3.85;;
77991;SDS011;67180;43.534;-5.652;2023-03-13T00:11:15;7.07;;;3.42;;
77991;SDS011;67180;43.534;-5.652;2023-03-13T00:13:41;8.95;;;3.70;;
77991;SDS011;67180;43.534;-5.652;2023-03-13T00:16:09;8.63;;;4.20;;
77991;SDS011;67180;43.534;-5.652;2023-03-13T00:18:35;8.10;;;3.88;;
77991;SDS011;67180;43.534;-5.652;2023-03-13T00:21:03;9.93;;;4.40;;
77991;SDS011;67180;43.534;-5.652;2023-03-13T00:23:30;9.90;;;4.30;;
77991;SDS011;67180;43.534;-5.652;2023-03-13T00:25:57;7.00;;;4.00;;
77991;SDS011;67180;43.534;-5.652;2023-03-13T00:28:24;5.22;;;3.60;;
77991;SDS011;67180;43.534;-5.652;2023-03-13T00:30:59;7.22;;;3.83;;
77991;SDS011;67180;43.534;-5.652;2023-03-13T00:33:25;8.27;;;3.45;;
77991;SDS011;67180;43.534;-5.652;2023-03-13T00:35:51;9.77;;;3.75;;
77991;SDS011;67180;43.534;-5.652;2023-03-13T00:38:17;6.65;;;3.83;;
77991;SDS011;67180;43.534;-5.652;2023-03-13T00:40:43;9.05;;;3.42;;
77991;SDS011;67180;43.534;-5.652;2023-03-13T00:43:09;7.10;;;3.30;;
77991;SDS011;67180;43.534;-5.652;2023-03-13T00:45:36;6.20;;;3.22;;
77991;SDS011;67180;43.534;-5.652;2023-03-13T00:48:03;7.05;;;3.58;;
77991;SDS011;67180;43.534;-5.652;2023-03-13T00:50:29;6.43;;;3.55;;
77991;SDS011;67180;43.534;-5.652;2023-03-13T00:52:55;18.00;;;8.93;;
77991;SDS011;67180;43.534;-5.652;2023-03-13T00:55:21;20.10;;;11.55;;
77991;SDS011;67180;43.534;-5.652;2023-03-13T00:57:48;11.20;;;7.15;;
77991;SDS011;67180;43.534;-5.652;2023-03-13T01:00:14;12.25;;;6.70;;
77991;SDS011;67180;43.534;-5.652;2023-03-13T01:02:41;8.27;;;5.03;;
77991;SDS011;67180;43.534;-5.652;2023-03-13T01:05:08;10.95;;;4.65;;
77991;SDS011;67180;43.534;-5.652;2023-03-13T01:07:34;9.50;;;4.20;;
77991;SDS011;67180;43.534;-5.652;2023-03-13T01:10:00;7.68;;;4.50;;
77991;SDS011;67180;43.534;-5.652;2023-03-13T01:12:26;8.68;;;4.25;;
77991;SDS011;67180;43.534;-5.652;2023-03-13T01:14:52;9.25;;;4.18;;
77991;SDS011;67180;43.534;-5.652;2023-03-13T01:17:19;9.57;;;4.78;;
77991;SDS011;67180;43.534;-5.652;2023-03-13T01:19:45;11.23;;;4.90;;
77991;SDS011;67180;43.534;-5.652;2023-03-13T01:22:11;8.40;;;4.38;;
77991;SDS011;67180;43.534;-5.652;2023-03-13T01:24:37;9.15;;;4.50;;
77991;SDS011;67180;43.534;-5.652;2023-03-13T01:27:04;11.75;;;5.18;;
77991;SDS011;67180;43.534;-5.652;2023-03-13T01:29:30;11.50;;;5.00;;
77991;SDS011;67180;43.534;-5.652;2023-03-13T01:31:56;14.35;;;5.70;;
77991;SDS011;67180;43.534;-5.652;2023-03-13T01:34:22;15.95;;;6.35;;
77991;SDS011;67180;43.534;-5.652;2023-03-13T01:36:48;15.88;;;6.30;;
77991;SDS011;67180;43.534;-5.652;2023-03-13T01:39:16;14.55;;;5.60;;
77991;SDS011;67180;43.534;-5.652;2023-03-13T01:41:42;11.68;;;5.03;;
77991;SDS011;67180;43.534;-5.652;2023-03-13T01:44:19;11.15;;;4.93;;
77991;SDS011;67180;43.534;-5.652;2023-03-13T01:46:46;11.00;;;5.50;;
77991;SDS011;67180;43.534;-5.652;2023-03-13T01:49:14;9.05;;;5.15;;
77991;SDS011;67180;43.534;-5.652;2023-03-13T01:51:44;11.40;;;5.03;;
77991;SDS011;67180;43.534;-5.652;2023-03-13T01:54:16;11.18;;;4.53;;
77991;SDS011;67180;43.534;-5.652;2023-03-13T01:56:47;7.75;;;4.53;;
77991;SDS011;67180;43.534;-5.652;2023-03-13T01:59:16;7.00;;;4.15;;
77991;SDS011;67180;43.534;-5.652;2023-03-13T02:01:43;8.52;;;4.28;;
77991;SDS011;67180;43.534;-5.652;2023-03-13T02:04:10;14.85;;;4.43;;
77991;SDS011;67180;43.534;-5.652;2023-03-13T02:06:37;6.15;;;3.97;;
77991;SDS011;67180;43.534;-5.652;2023-03-13T02:09:07;7.68;;;4.35;;
77991;SDS011;67180;43.534;-5.652;2023-03-13T02:11:43;11.02;;;4.15;;
77991;SDS011;67180;43.534;-5.652;2023-03-13T02:14:10;10.20;;;3.92;;
77991;SDS011;67180;43.534;-5.652;2023-03-13T02:16:37;8.45;;;4.00;;
77991;SDS011;67180;43.534;-5.652;2023-03-13T02:19:07;14.55;;;4.53;;
77991;SDS011;67180;43.534;-5.652;2023-03-13T02:21:39;6.72;;;3.60;;
77991;SDS011;67180;43.534;-5.652;2023-03-13T02:24:09;10.40;;;4.25;;
77991;SDS011;67180;43.534;-5.652;2023-03-13T02:26:38;8.00;;;4.20;;
77991;SDS011;67180;43.534;-5.652;2023-03-13T02:29:04;8.52;;;4.00;;
77991;SDS011;67180;43.534;-5.652;2023-03-13T02:31:30;14.40;;;4.28;;
77991;SDS011;67180;43.534;-5.652;2023-03-13T02:33:57;7.88;;;3.75;;
77991;SDS011;67180;43.534;-5.652;2023-03-13T02:36:24;7.80;;;3.67;;
77991;SDS011;67180;43.534;-5.652;2023-03-13T02:38:52;7.47;;;4.10;;
77991;SDS011;67180;43.534;-5.652;2023-03-13T02:41:20;7.28;;;3.95;;
77991;SDS011;67180;43.534;-5.652;2023-03-13T02:43:47;6.65;;;4.05;;
77991;SDS011;67180;43.534;-5.652;2023-03-13T02:46:16;6.82;;;4.00;;
77991;SDS011;67180;43.534;-5.652;2023-03-13T02:48:44;5.40;;;4.07;;
77991;SDS011;67180;43.534;-5.652;2023-03-13T02:51:16;8.15;;;3.70;;
77991;SDS011;67180;43.534;-5.652;2023-03-13T02:53:44;6.88;;;3.80;;
77991;SDS011;67180;43.534;-5.652;2023-03-13T02:56:12;8.55;;;3.85;;
77991;SDS011;67180;43.534;-5.652;2023-03-13T02:58:40;8.98;;;3.85;;
77991;SDS011;67180;43.534;-5.652;2023-03-13T03:01:06;4.28;;;3.15;;
77991;SDS011;67180;43.534;-5.652;2023-03-13T03:03:33;7.03;;;3.22;;
77991;SDS011;67180;43.534;-5.652;2023-03-13T03:06:01;6.78;;;3.00;;
77991;SDS011;67180;43.534;-5.652;2023-03-13T03:08:27;5.78;;;2.83;;
77991;SDS011;67180;43.534;-5.652;2023-03-13T03:10:54;7.93;;;3.35;;
77991;SDS011;67180;43.534;-5.652;2023-03-13T03:13:20;5.55;;;2.88;;
77991;SDS011;67180;43.534;-5.652;2023-03-13T03:15:46;5.32;;;2.90;;
77991;SDS011;67180;43.534;-5.652;2023-03-13T03:18:12;4.90;;;2.78;;
77991;SDS011;67180;43.534;-5.652;2023-03-13T03:20:38;7.20;;;3.20;;
77991;SDS011;67180;43.534;-5.652;2023-03-13T03:23:05;6.25;;;2.80;;
77991;SDS011;67180;43.534;-5.652;2023-03-13T03:25:31;7.95;;;2.78;;
77991;SDS011;67180;43.534;-5.652;2023-03-13T03:27:57;5.03;;;3.42;;
77991;SDS011;67180;43.534;-5.652;2023-03-13T03:30:23;4.65;;;3.00;;
77991;SDS011;67180;43.534;-5.652;2023-03-13T03:32:49;4.55;;;2.80;;
77991;SDS011;67180;43.534;-5.652;2023-03-13T03:35:15;5.35;;;3.00;;
77991;SDS011;67180;43.534;-5.652;2023-03-13T03:37:42;7.90;;;3.08;;
77991;SDS011;67180;43.534;-5.652;2023-03-13T03:40:08;6.68;;;3.28;;
77991;SDS011;67180;43.534;-5.652;2023-03-13T03:42:35;12.23;;;3.08;;
77991;SDS011;67180;43.534;-5.652;2023-03-13T03:45:01;7.72;;;3.42;;
77991;SDS011;67180;43.534;-5.652;2023-03-13T03:47:27;6.57;;;3.25;;
77991;SDS011;67180;43.534;-5.652;2023-03-13T03:49:54;4.88;;;3.03;;
77991;SDS011;67180;43.534;-5.652;2023-03-13T03:52:20;4.53;;;3.20;;
77991;SDS011;67180;43.534;-5.652;2023-03-13T03:54:46;5.68;;;3.00;;
77991;SDS011;67180;43.534;-5.652;2023-03-13T03:57:12;5.05;;;2.95;;
77991;SDS011;67180;43.534;-5.652;2023-03-13T03:59:39;5.05;;;2.78;;
77991;SDS011;67180;43.534;-5.652;2023-03-13T04:02:05;4.85;;;3.00;;
77991;SDS011;67180;43.534;-5.652;2023-03-13T04:04:31;6.80;;;2.92;;
77991;SDS011;67180;43.534;-5.652;2023-03-13T04:06:57;6.88;;;3.05;;
77991;SDS011;67180;43.534;-5.652;2023-03-13T04:09:23;7.85;;;3.20;;
77991;SDS011;67180;43.534;-5.652;2023-03-13T04:11:49;5.32;;;3.17;;
77991;SDS011;67180;43.534;-5.652;2023-03-13T04:14:16;6.05;;;3.20;;
77991;SDS011;67180;43.534;-5.652;2023-03-13T04:16:42;7.80;;;3.58;;
77991;SDS011;67180;43.534;-5.652;2023-03-13T04:19:08;8.70;;;3.60;;
77991;SDS011;67180;43.534;-5.652;2023-03-13T04:21:34;7.15;;;3.35;;
77991;SDS011;67180;43.534;-5.652;2023-03-13T04:24:00;7.57;;;3.30;;
77991;SDS011;67180;43.534;-5.652;2023-03-13T04:26:26;7.72;;;3.95;;
77991;SDS011;67180;43.534;-5.652;2023-03-13T04:28:53;7.45;;;3.83;;
77991;SDS011;67180;43.534;-5.652;2023-03-13T04:31:19;10.00;;;4.50;;
77991;SDS011;67180;43.534;-5.652;2023-03-13T04:33:45;11.43;;;4.45;;
77991;SDS011;67180;43.534;-5.652;2023-03-13T04:36:11;13.20;;;4.78;;
77991;SDS011;67180;43.534;-5.652;2023-03-13T04:38:37;12.43;;;4.18;;
77991;SDS011;67180;43.534;-5.652;2023-03-13T04:41:04;13.75;;;3.80;;
77991;SDS011;67180;43.534;-5.652;2023-03-13T04:43:30;12.18;;;4.25;;
77991;SDS011;67180;43.534;-5.652;2023-03-13T04:45:56;9.13;;;3.78;;
77991;SDS011;67180;43.534;-5.652;2023-03-13T04:48:22;11.70;;;4.20;;
77991;SDS011;67180;43.534;-5.652;2023-03-13T04:50:48;25.50;;;4.95;;
77991;SDS011;67180;43.534;-5.652;2023-03-13T04:53:14;16.08;;;4.50;;
77991;SDS011;67180;43.534;-5.652;2023-03-13T04:55:41;10.65;;;3.92;;
77991;SDS011;67180;43.534;-5.652;2023-03-13T04:58:07;12.02;;;4.10;;
77991;SDS011;67180;43.534;-5.652;2023-03-13T05:00:33;11.80;;;4.80;;
77991;SDS011;67180;43.534;-5.652;2023-03-13T05:02:59;13.48;;;4.28;;
77991;SDS011;67180;43.534;-5.652;2023-03-13T05:05:25;15.45;;;4.82;;
77991;SDS011;67180;43.534;-5.652;2023-03-13T05:07:51;8.75;;;3.90;;
77991;SDS011;67180;43.534;-5.652;2023-03-13T05:10:19;10.30;;;4.68;;
77991;SDS011;67180;43.534;-5.652;2023-03-13T05:12:45;10.30;;;4.10;;
77991;SDS011;67180;43.534;-5.652;2023-03-13T05:15:11;9.88;;;4.20;;
77991;SDS011;67180;43.534;-5.652;2023-03-13T05:17:37;8.93;;;3.92;;
77991;SDS011;67180;43.534;-5.652;2023-03-13T05:20:03;13.23;;;3.90;;
77991;SDS011;67180;43.534;-5.652;2023-03-13T05:22:31;15.52;;;4.03;;
77991;SDS011;67180;43.534;-5.652;2023-03-13T05:24:58;9.25;;;3.95;;
77991;SDS011;67180;43.534;-5.652;2023-03-13T05:27:24;12.82;;;4.05;;
77991;SDS011;67180;43.534;-5.652;2023-03-13T05:29:50;7.35;;;3.72;;
77991;SDS011;67180;43.534;-5.652;2023-03-13T05:32:16;10.07;;;4.13;;
77991;SDS011;67180;43.534;-5.652;2023-03-13T05:34:42;10.07;;;4.07;;
77991;SDS011;67180;43.534;-5.652;2023-03-13T05:37:09;11.10;;;4.15;;
77991;SDS011;67180;43.534;-5.652;2023-03-13T05:39:36;9.50;;;3.47;;
77991;SDS011;67180;43.534;-5.652;2023-03-13T05:42:02;9.98;;;3.90;;
77991;SDS011;67180;43.534;-5.652;2023-03-13T05:44:28;9.93;;;4.00;;
77991;SDS011;67180;43.534;-5.652;2023-03-13T05:46:54;10.43;;;3.83;;
77991;SDS011;67180;43.534;-5.652;2023-03-13T05:49:21;11.50;;;4.07;;
77991;SDS011;67180;43.534;-5.652;2023-03-13T05:51:47;12.73;;;4.15;;
77991;SDS011;67180;43.534;-5.652;2023-03-13T05:54:13;9.02;;;3.80;;
77991;SDS011;67180;43.534;-5.652;2023-03-13T05:56:39;7.22;;;3.47;;
77991;SDS011;67180;43.534;-5.652;2023-03-13T05:59:05;9.35;;;3.83;;
77991;SDS011;67180;43.534;-5.652;2023-03-13T06:01:31;8.60;;;3.80;;
77991;SDS011;67180;43.534;-5.652;2023-03-13T06:03:58;9.30;;;3.72;;
77991;SDS011;67180;43.534;-5.652;2023-03-13T06:06:24;8.80;;;3.60;;
77991;SDS011;67180;43.534;-5.652;2023-03-13T06:08:50;7.50;;;3.35;;
77991;SDS011;67180;43.534;-5.652;2023-03-13T06:11:17;9.57;;;3.58;;
77991;SDS011;67180;43.534;-5.652;2023-03-13T06:13:43;12.60;;;3.70;;
77991;SDS011;67180;43.534;-5.652;2023-03-13T06:16:10;10.60;;;3.85;;
77991;SDS011;67180;43.534;-5.652;2023-03-13T06:18:36;9.13;;;3.35;;
77991;SDS011;67180;43.534;-5.652;2023-03-13T06:21:05;12.73;;;3.50;;
77991;SDS011;67180;43.534;-5.652;2023-03-13T06:23:31;8.60;;;3.90;;
77991;SDS011;67180;43.534;-5.652;2023-03-13T06:25:59;8.75;;;3.53;;
77991;SDS011;67180;43.534;-5.652;2023-03-13T06:28:26;8.70;;;3.60;;
77991;SDS011;67180;43.534;-5.652;2023-03-13T06:30:52;12.75;;;3.95;;
77991;SDS011;67180;43.534;-5.652;2023-03-13T06:33:19;13.02;;;4.00;;
77991;SDS011;67180;43.534;-5.652;2023-03-13T06:35:46;8.18;;;3.80;;
77991;SDS011;67180;43.534;-5.652;2023-03-13T06:38:12;6.32;;;3.40;;
77991;SDS011;67180;43.534;-5.652;2023-03-13T06:40:39;6.75;;;3.40;;
77991;SDS011;67180;43.534;-5.652;2023-03-13T06:43:05;8.07;;;3.30;;
77991;SDS011;67180;43.534;-5.652;2023-03-13T06:45:33;7.53;;;3.58;;
77991;SDS011;67180;43.534;-5.652;2023-03-13T06:47:59;9.80;;;3.92;;
77991;SDS011;67180;43.534;-5.652;2023-03-13T06:50:25;9.25;;;3.60;;
77991;SDS011;67180;43.534;-5.652;2023-03-13T06:52:51;7.53;;;3.45;;
77991;SDS011;67180;43.534;-5.652;2023-03-13T06:55:18;9.00;;;3.28;;
77991;SDS011;67180;43.534;-5.652;2023-03-13T06:57:48;12.18;;;3.55;;
77991;SDS011;67180;43.534;-5.652;2023-03-13T07:00:15;9.23;;;3.50;;
77991;SDS011;67180;43.534;-5.652;2023-03-13T07:02:42;8.85;;;3.33;;
77991;SDS011;67180;43.534;-5.652;2023-03-13T07:05:08;6.30;;;3.58;;
77991;SDS011;67180;43.534;-5.652;2023-03-13T07:07:34;11.25;;;4.07;;
77991;SDS011;67180;43.534;-5.652;2023-03-13T07:10:02;12.10;;;3.90;;
77991;SDS011;67180;43.534;-5.652;2023-03-13T07:12:28;10.23;;;4.20;;
77991;SDS011;67180;43.534;-5.652;2023-03-13T07:14:55;7.10;;;4.18;;
77991;SDS011;67180;43.534;-5.652;2023-03-13T07:17:21;12.88;;;4.03;;
77991;SDS011;67180;43.534;-5.652;2023-03-13T07:19:47;14.07;;;3.67;;
77991;SDS011;67180;43.534;-5.652;2023-03-13T07:22:13;11.63;;;3.45;;
77991;SDS011;67180;43.534;-5.652;2023-03-13T07:24:39;8.40;;;3.35;;
77991;SDS011;67180;43.534;-5.652;2023-03-13T07:27:05;7.93;;;3.17;;
77991;SDS011;67180;43.534;-5.652;2023-03-13T07:29:31;11.43;;;2.92;;
77991;SDS011;67180;43.534;-5.652;2023-03-13T07:31:58;7.90;;;2.92;;
77991;SDS011;67180;43.534;-5.652;2023-03-13T07:34:24;10.40;;;3.22;;
77991;SDS011;67180;43.534;-5.652;2023-03-13T07:36:50;8.75;;;3.20;;
77991;SDS011;67180;43.534;-5.652;2023-03-13T07:39:16;7.93;;;3.35;;
77991;SDS011;67180;43.534;-5.652;2023-03-13T07:41:42;7.03;;;2.92;;
77991;SDS011;67180;43.534;-5.652;2023-03-13T07:44:08;7.95;;;2.67;;
77991;SDS011;67180;43.534;-5.652;2023-03-13T07:46:35;8.05;;;3.00;;
77991;SDS011;67180;43.534;-5.652;2023-03-13T07:49:01;7.57;;;3.20;;
77991;SDS011;67180;43.534;-5.652;2023-03-13T07:51:27;7.43;;;3.15;;
77991;SDS011;67180;43.534;-5.652;2023-03-13T07:53:53;7.38;;;3.33;;
77991;SDS011;67180;43.534;-5.652;2023-03-13T07:56:20;9.25;;;4.10;;
77991;SDS011;67180;43.534;-5.652;2023-03-13T07:58:48;19.95;;;5.60;;
77991;SDS011;67180;43.534;-5.652;2023-03-13T08:01:16;22.10;;;6.78;;
77991;SDS011;67180;43.534;-5.652;2023-03-13T08:03:43;19.38;;;7.32;;
77991;SDS011;67180;43.534;-5.652;2023-03-13T08:06:12;20.13;;;7.57;;
77991;SDS011;67180;43.534;-5.652;2023-03-13T08:08:39;36.42;;;10.63;;
77991;SDS011;67180;43.534;-5.652;2023-03-13T08:11:07;37.58;;;12.20;;
77991;SDS011;67180;43.534;-5.652;2023-03-13T08:13:36;32.50;;;11.05;;
77991;SDS011;67180;43.534;-5.652;2023-03-13T08:16:03;35.03;;;10.85;;
77991;SDS011;67180;43.534;-5.652;2023-03-13T08:18:30;31.05;;;9.10;;
77991;SDS011;67180;43.534;-5.652;2023-03-13T08:21:06;23.88;;;6.90;;
77991;SDS011;67180;43.534;-5.652;2023-03-13T08:23:34;21.88;;;7.28;;
77991;SDS011;67180;43.534;-5.652;2023-03-13T08:26:01;23.17;;;7.63;;
77991;SDS011;67180;43.534;-5.652;2023-03-13T08:28:27;26.70;;;7.03;;
77991;SDS011;67180;43.534;-5.652;2023-03-13T08:30:53;19.73;;;6.20;;
77991;SDS011;67180;43.534;-5.652;2023-03-13T08:33:20;21.15;;;6.38;;
77991;SDS011;67180;43.534;-5.652;2023-03-13T08:35:46;17.05;;;5.50;;
77991;SDS011;67180;43.534;-5.652;2023-03-13T08:38:12;16.17;;;6.43;;
77991;SDS011;67180;43.534;-5.652;2023-03-13T08:40:38;24.90;;;6.63;;
77991;SDS011;67180;43.534;-5.652;2023-03-13T08:43:05;19.50;;;5.97;;
77991;SDS011;67180;43.534;-5.652;2023-03-13T08:45:31;17.75;;;6.13;;
77991;SDS011;67180;43.534;-5.652;2023-03-13T08:47:57;17.15;;;5.63;;
77991;SDS011;67180;43.534;-5.652;2023-03-13T08:50:23;19.17;;;5.70;;
77991;SDS011;67180;43.534;-5.652;2023-03-13T08:52:49;22.00;;;5.35;;
77991;SDS011;67180;43.534;-5.652;2023-03-13T08:55:16;20.00;;;4.95;;
77991;SDS011;67180;43.534;-5.652;2023-03-13T08:57:42;13.10;;;4.68;;
77991;SDS011;67180;43.534;-5.652;2023-03-13T09:00:08;11.63;;;4.82;;
77991;SDS011;67180;43.534;-5.652;2023-03-13T09:02:35;10.27;;;4.72;;
77991;SDS011;67180;43.534;-5.652;2023-03-13T09:05:01;14.50;;;5.50;;
77991;SDS011;67180;43.534;-5.652;2023-03-13T09:07:27;13.73;;;4.72;;
77991;SDS011;67180;43.534;-5.652;2023-03-13T09:09:53;15.38;;;5.88;;
77991;SDS011;67180;43.534;-5.652;2023-03-13T09:12:19;18.50;;;5.88;;
77991;SDS011;67180;43.534;-5.652;2023-03-13T09:14:46;23.00;;;7.25;;
77991;SDS011;67180;43.534;-5.652;2023-03-13T09:17:12;21.27;;;5.85;;
77991;SDS011;67180;43.534;-5.652;2023-03-13T09:19:39;22.70;;;6.63;;
77991;SDS011;67180;43.534;-5.652;2023-03-13T09:22:05;24.10;;;6.38;;
77991;SDS011;67180;43.534;-5.652;2023-03-13T09:24:31;17.98;;;5.07;;
77991;SDS011;67180;43.534;-5.652;2023-03-13T09:26:57;19.58;;;4.80;;
77991;SDS011;67180;43.534;-5.652;2023-03-13T09:29:23;20.17;;;4.68;;
77991;SDS011;67180;43.534;-5.652;2023-03-13T09:31:50;13.27;;;4.07;;
77991;SDS011;67180;43.534;-5.652;2023-03-13T09:34:16;23.83;;;4.95;;
77991;SDS011;67180;43.534;-5.652;2023-03-13T09:36:42;46.63;;;7.00;;
77991;SDS011;67180;43.534;-5.652;2023-03-13T09:39:08;17.52;;;4.53;;
77991;SDS011;67180;43.534;-5.652;2023-03-13T09:41:39;12.70;;;4.18;;
77991;SDS011;67180;43.534;-5.652;2023-03-13T09:44:10;18.67;;;4.43;;
77991;SDS011;67180;43.534;-5.652;2023-03-13T09:46:40;22.75;;;5.18;;
77991;SDS011;67180;43.534;-5.652;2023-03-13T09:49:13;31.25;;;6.28;;
77991;SDS011;67180;43.534;-5.652;2023-03-13T09:51:41;39.65;;;7.40;;
77991;SDS011;67180;43.534;-5.652;2023-03-13T09:54:18;34.90;;;7.68;;
77991;SDS011;67180;43.534;-5.652;2023-03-13T09:56:52;27.27;;;7.00;;
77991;SDS011;67180;43.534;-5.652;2023-03-13T09:59:23;34.38;;;7.32;;
77991;SDS011;67180;43.534;-5.652;2023-03-13T10:01:52;29.15;;;6.47;;
77991;SDS011;67180;43.534;-5.652;2023-03-13T10:04:27;22.70;;;6.00;;
77991;SDS011;67180;43.534;-5.652;2023-03-13T10:06:55;24.08;;;6.18;;
77991;SDS011;67180;43.534;-5.652;2023-03-13T10:09:27;27.98;;;6.55;;
77991;SDS011;67180;43.534;-5.652;2023-03-13T10:11:58;27.05;;;6.10;;
77991;SDS011;67180;43.534;-5.652;2023-03-13T10:14:30;20.55;;;6.07;;
77991;SDS011;67180;43.534;-5.652;2023-03-13T10:17:02;17.83;;;5.35;;
77991;SDS011;67180;43.534;-5.652;2023-03-13T10:19:31;31.83;;;6.10;;
77991;SDS011;67180;43.534;-5.652;2023-03-13T10:21:57;24.33;;;5.95;;
77991;SDS011;67180;43.534;-5.652;2023-03-13T10:27:10;21.88;;;7.22;;
77991;SDS011;67180;43.534;-5.652;2023-03-13T10:29:36;21.75;;;6.78;;
77991;SDS011;67180;43.534;-5.652;2023-03-13T10:32:05;20.67;;;6.53;;
77991;SDS011;67180;43.534;-5.652;2023-03-13T10:34:49;20.30;;;5.97;;
77991;SDS011;67180;43.534;-5.652;2023-03-13T10:37:21;16.67;;;4.32;;
77991;SDS011;67180;43.534;-5.652;2023-03-13T10:39:48;17.65;;;4.72;;
77991;SDS011;67180;43.534;-5.652;2023-03-13T10:42:23;16.35;;;5.38;;
77991;SDS011;67180;43.534;-5.652;2023-03-13T10:44:55;20.73;;;4.93;;
77991;SDS011;67180;43.534;-5.652;2023-03-13T10:47:21;19.42;;;5.13;;
77991;SDS011;67180;43.534;-5.652;2023-03-13T10:49:49;18.05;;;4.32;;
77991;SDS011;67180;43.534;-5.652;2023-03-13T10:54:51;15.63;;;4.03;;
77991;SDS011;67180;43.534;-5.652;2023-03-13T10:57:28;19.70;;;4.60;;
77991;SDS011;67180;43.534;-5.652;2023-03-13T10:59:55;16.20;;;3.63;;
77991;SDS011;67180;43.534;-5.652;2023-03-13T11:07:42;12.57;;;3.80;;
77991;SDS011;67180;43.534;-5.652;2023-03-13T11:10:26;12.73;;;3.70;;
77991;SDS011;67180;43.534;-5.652;2023-03-13T11:12:54;9.93;;;3.55;;
77991;SDS011;67180;43.534;-5.652;2023-03-13T11:15:23;12.07;;;3.05;;
77991;SDS011;67180;43.534;-5.652;2023-03-13T11:17:55;7.55;;;3.00;;
77991;SDS011;67180;43.534;-5.652;2023-03-13T11:20:24;13.77;;;3.10;;
77991;SDS011;67180;43.534;-5.652;2023-03-13T11:28:16;14.32;;;3.50;;
77991;SDS011;67180;43.534;-5.652;2023-03-13T11:38:31;8.45;;;2.90;;
77991;SDS011;67180;43.534;-5.652;2023-03-13T11:41:03;8.60;;;2.90;;
77991;SDS011;67180;43.534;-5.652;2023-03-13T11:43:38;9.15;;;2.83;;
77991;SDS011;67180;43.534;-5.652;2023-03-13T11:46:19;9.90;;;3.30;;
77991;SDS011;67180;43.534;-5.652;2023-03-13T11:48:52;7.78;;;2.90;;
77991;SDS011;67180;43.534;-5.652;2023-03-13T11:56:55;8.00;;;2.88;;
77991;SDS011;67180;43.534;-5.652;2023-03-13T11:59:26;7.78;;;2.97;;
77991;SDS011;67180;43.534;-5.652;2023-03-13T12:01:54;6.72;;;2.92;;
77991;SDS011;67180;43.534;-5.652;2023-03-13T12:04:24;9.50;;;3.13;;
77991;SDS011;67180;43.534;-5.652;2023-03-13T12:12:21;6.75;;;2.85;;
77991;SDS011;67180;43.534;-5.652;2023-03-13T12:14:52;6.95;;;3.13;;
77991;SDS011;67180;43.534;-5.652;2023-03-13T12:17:30;8.77;;;2.83;;
77991;SDS011;67180;43.534;-5.652;2023-03-13T12:20:01;8.27;;;2.58;;
77991;SDS011;67180;43.534;-5.652;2023-03-13T12:22:35;5.95;;;2.50;;
77991;SDS011;67180;43.534;-5.652;2023-03-13T12:25:09;7.20;;;2.70;;
77991;SDS011;67180;43.534;-5.652;2023-03-13T12:27:38;12.63;;;3.28;;
77991;SDS011;67180;43.534;-5.652;2023-03-13T12:30:13;6.07;;;2.22;;
77991;SDS011;67180;43.534;-5.652;2023-03-13T12:35:25;8.30;;;2.70;;
77991;SDS011;67180;43.534;-5.652;2023-03-13T12:37:57;12.15;;;3.97;;
77991;SDS011;67180;43.534;-5.652;2023-03-13T12:40:36;11.05;;;3.20;;
77991;SDS011;67180;43.534;-5.652;2023-03-13T12:43:09;10.02;;;3.10;;
77991;SDS011;67180;43.534;-5.652;2023-03-13T12:45:37;11.02;;;5.18;;
77991;SDS011;67180;43.534;-5.652;2023-03-13T12:48:16;5.10;;;2.90;;
77991;SDS011;67180;43.534;-5.652;2023-03-13T12:53:42;9.23;;;2.08;;
77991;SDS011;67180;43.534;-5.652;2023-03-13T12:56:14;6.43;;;2.15;;
77991;SDS011;67180;43.534;-5.652;2023-03-13T12:58:50;8.18;;;1.80;;
77991;SDS011;67180;43.534;-5.652;2023-03-13T13:01:20;12.73;;;2.30;;
77991;SDS011;67180;43.534;-5.652;2023-03-13T13:03:52;9.48;;;2.20;;
77991;SDS011;67180;43.534;-5.652;2023-03-13T13:06:20;13.00;;;1.80;;
77991;SDS011;67180;43.534;-5.652;2023-03-13T13:08:48;9.88;;;1.80;;
77991;SDS011;67180;43.534;-5.652;2023-03-13T13:13:51;6.55;;;1.80;;
77991;SDS011;67180;43.534;-5.652;2023-03-13T13:16:19;14.65;;;1.85;;
77991;SDS011;67180;43.534;-5.652;2023-03-13T13:18:46;5.65;;;1.38;;
77991;SDS011;67180;43.534;-5.652;2023-03-13T13:21:21;5.22;;;1.10;;
77991;SDS011;67180;43.534;-5.652;2023-03-13T13:23:50;7.18;;;1.35;;
77991;SDS011;67180;43.534;-5.652;2023-03-13T13:26:37;6.90;;;1.25;;
77991;SDS011;67180;43.534;-5.652;2023-03-13T13:31:55;10.65;;;1.50;;
77991;SDS011;67180;43.534;-5.652;2023-03-13T13:37:23;9.38;;;1.40;;
77991;SDS011;67180;43.534;-5.652;2023-03-13T13:39:52;9.93;;;1.77;;
77991;SDS011;67180;43.534;-5.652;2023-03-13T13:42:36;8.55;;;1.70;;
77991;SDS011;67180;43.534;-5.652;2023-03-13T13:45:20;8.98;;;1.80;;
77991;SDS011;67180;43.534;-5.652;2023-03-13T13:47:50;6.85;;;1.30;;
77991;SDS011;67180;43.534;-5.652;2023-03-13T13:50:24;6.13;;;1.50;;
77991;SDS011;67180;43.534;-5.652;2023-03-13T13:52:51;8.25;;;1.48;;
77991;SDS011;67180;43.534;-5.652;2023-03-13T13:58:04;15.70;;;1.52;;
77991;SDS011;67180;43.534;-5.652;2023-03-13T14:03:22;6.55;;;1.10;;
77991;SDS011;67180;43.534;-5.652;2023-03-13T14:05:50;10.35;;;1.45;;
77991;SDS011;67180;43.534;-5.652;2023-03-13T14:08:23;8.27;;;1.48;;
77991;SDS011;67180;43.534;-5.652;2023-03-13T14:10:51;5.38;;;1.08;;
77991;SDS011;67180;43.534;-5.652;2023-03-13T14:13:20;9.73;;;1.15;;
77991;SDS011;67180;43.534;-5.652;2023-03-13T14:15:49;4.05;;;0.80;;
77991;SDS011;67180;43.534;-5.652;2023-03-13T14:18:20;3.78;;;0.95;;
77991;SDS011;67180;43.534;-5.652;2023-03-13T14:20:52;3.42;;;0.82;;
77991;SDS011;67180;43.534;-5.652;2023-03-13T14:25:46;3.45;;;0.80;;
77991;SDS011;67180;43.534;-5.652;2023-03-13T14:28:15;2.90;;;0.60;;
77991;SDS011;67180;43.534;-5.652;2023-03-13T14:30:42;2.63;;;0.80;;
77991;SDS011;67180;43.534;-5.652;2023-03-13T14:33:09;3.00;;;1.08;;
77991;SDS011;67180;43.534;-5.652;2023-03-13T14:35:35;2.97;;;1.02;;
77991;SDS011;67180;43.534;-5.652;2023-03-13T14:38:01;3.85;;;1.15;;
77991;SDS011;67180;43.534;-5.652;2023-03-13T14:40:28;5.07;;;1.20;;
77991;SDS011;67180;43.534;-5.652;2023-03-13T14:42:56;2.72;;;1.00;;
77991;SDS011;67180;43.534;-5.652;2023-03-13T14:45:24;4.13;;;1.30;;
77991;SDS011;67180;43.534;-5.652;2023-03-13T14:47:51;3.40;;;1.00;;
77991;SDS011;67180;43.534;-5.652;2023-03-13T14:50:18;1.85;;;0.90;;
77991;SDS011;67180;43.534;-5.652;2023-03-13T14:52:47;7.93;;;1.50;;
77991;SDS011;67180;43.534;-5.652;2023-03-13T14:55:25;7.18;;;1.25;;
77991;SDS011;67180;43.534;-5.652;2023-03-13T14:57:54;4.75;;;1.10;;
77991;SDS011;67180;43.534;-5.652;2023-03-13T15:03:20;7.75;;;1.10;;
77991;SDS011;67180;43.534;-5.652;2023-03-13T15:05:47;6.45;;;1.27;;
77991;SDS011;67180;43.534;-5.652;2023-03-13T15:08:18;5.20;;;1.00;;
77991;SDS011;67180;43.534;-5.652;2023-03-13T15:13:15;7.53;;;1.30;;
77991;SDS011;67180;43.534;-5.652;2023-03-13T15:15:41;4.25;;;1.15;;
77991;SDS011;67180;43.534;-5.652;2023-03-13T15:18:11;4.43;;;1.25;;
77991;SDS011;67180;43.534;-5.652;2023-03-13T15:20:41;2.95;;;1.30;;
77991;SDS011;67180;43.534;-5.652;2023-03-13T15:23:09;4.97;;;1.73;;
77991;SDS011;67180;43.534;-5.652;2023-03-13T15:25:39;3.20;;;1.30;;
77991;SDS011;67180;43.534;-5.652;2023-03-13T15:28:12;2.55;;;1.02;;
77991;SDS011;67180;43.534;-5.652;2023-03-13T15:30:39;3.80;;;0.85;;
77991;SDS011;67180;43.534;-5.652;2023-03-13T15:33:08;4.13;;;1.17;;
77991;SDS011;67180;43.534;-5.652;2023-03-13T15:35:35;1.77;;;0.90;;